Time;durP1;ratioP1;P1;durP2;ratioP2;P2;SDS_P1;SDS_P2;PMS_P1;PMS_P2;Temp;Humidity;BMP_temperature;BMP_pressure;BME280_temperature;BME280_humidity;BME280_pressure;Samples;Min_cycle;Max_cycle;Signal;HPM_P1;HPM_P2
2023/04/27 00:00:56;;;;;;;3.45;2.92;;;4.80;99.90;;;;;;5071302;28;20154;-59
2023/04/27 00:03:22;;;;;;;3.90;2.70;;;4.80;99.90;;;;;;5072094;28;20025;-58
2023/04/27 00:05:47;;;;;;;4.43;2.90;;;4.80;99.90;;;;;;5073467;28;20034;-59
2023/04/27 00:08:13;;;;;;;9.88;3.50;;;4.70;99.90;;;;;;5075048;28;20078;-59
2023/04/27 00:10:38;;;;;;;7.03;3.25;;;4.70;99.90;;;;;;5073341;28;20046;-58
2023/04/27 00:13:04;;;;;;;5.13;3.40;;;4.60;99.90;;;;;;5074760;28;20066;-59
2023/04/27 00:15:30;;;;;;;7.10;4.65;;;4.60;99.90;;;;;;5072162;28;20036;-59
2023/04/27 00:17:56;;;;;;;6.10;3.33;;;4.60;99.90;;;;;;5071825;28;20036;-58
2023/04/27 00:20:22;;;;;;;4.03;3.35;;;4.60;99.90;;;;;;5071799;28;20036;-58
2023/04/27 00:22:48;;;;;;;5.15;3.28;;;4.60;99.90;;;;;;5057439;28;20502;-58
2023/04/27 00:25:14;;;;;;;8.32;3.40;;;4.60;99.90;;;;;;5071242;28;20021;-58
2023/04/27 00:27:40;;;;;;;7.65;4.57;;;4.60;99.90;;;;;;5071968;28;20056;-59
2023/04/27 00:30:06;;;;;;;7.43;3.40;;;4.60;99.90;;;;;;5070806;28;20028;-59
2023/04/27 00:32:32;;;;;;;5.25;3.05;;;4.50;99.90;;;;;;5070622;28;20051;-60
2023/04/27 00:34:58;;;;;;;9.07;3.78;;;4.50;99.90;;;;;;5071372;28;20052;-58
2023/04/27 00:37:26;;;;;;;5.35;3.28;;;4.50;99.90;;;;;;5069851;28;20082;-58
2023/04/27 00:39:52;;;;;;;8.52;3.38;;;4.50;99.90;;;;;;5069781;28;20032;-59
2023/04/27 00:42:18;;;;;;;10.60;3.53;;;4.50;99.90;;;;;;5071101;28;20033;-60
2023/04/27 00:44:45;;;;;;;7.75;3.80;;;4.60;99.90;;;;;;5071749;28;20484;-59
2023/04/27 00:47:11;;;;;;;8.98;5.57;;;4.60;99.90;;;;;;5072233;28;20039;-59
2023/04/27 00:49:37;;;;;;;8.75;5.80;;;4.60;99.90;;;;;;5070893;28;20044;-58
2023/04/27 00:52:03;;;;;;;7.80;3.60;;;4.70;99.90;;;;;;5075520;28;20005;-59
2023/04/27 00:54:30;;;;;;;5.45;3.47;;;4.70;99.90;;;;;;5073644;28;20031;-59
2023/04/27 00:56:56;;;;;;;5.00;3.08;;;4.70;99.90;;;;;;5071964;28;20028;-59
2023/04/27 00:59:22;;;;;;;9.80;3.72;;;4.70;99.90;;;;;;5078860;28;20083;-59
2023/04/27 01:01:49;;;;;;;9.20;4.38;;;4.70;99.90;;;;;;5076016;28;20021;-58
2023/04/27 01:04:18;;;;;;;7.22;4.32;;;4.70;99.90;;;;;;5073554;28;20025;-59
2023/04/27 01:06:43;;;;;;;5.75;4.05;;;4.70;99.90;;;;;;5076291;28;20017;-59
2023/04/27 01:09:10;;;;;;;7.60;3.97;;;4.80;99.90;;;;;;5059634;28;20039;-59
2023/04/27 01:11:36;;;;;;;5.15;3.92;;;4.80;99.90;;;;;;5074957;28;20083;-59
2023/04/27 01:14:05;;;;;;;7.25;3.60;;;4.80;99.90;;;;;;5073836;28;20413;-59
2023/04/27 01:16:32;;;;;;;8.73;3.10;;;4.80;99.90;;;;;;5073268;28;20025;-59
2023/04/27 01:18:57;;;;;;;5.10;3.05;;;4.80;99.90;;;;;;5075151;28;20640;-58
2023/04/27 01:21:24;;;;;;;5.25;2.90;;;4.70;99.90;;;;;;5053792;28;20033;-58
2023/04/27 01:23:49;;;;;;;5.30;3.75;;;4.70;99.90;;;;;;5077474;28;20021;-59
2023/04/27 01:26:15;;;;;;;4.07;2.55;;;4.70;99.90;;;;;;5074598;28;20047;-59
2023/04/27 01:28:44;;;;;;;4.18;3.13;;;4.60;99.90;;;;;;5071075;28;20051;-59
2023/04/27 01:31:10;;;;;;;6.32;3.28;;;4.60;99.90;;;;;;5077362;28;20490;-58
2023/04/27 01:33:37;;;;;;;8.20;3.10;;;4.60;99.90;;;;;;5077156;28;20083;-59
2023/04/27 01:36:02;;;;;;;4.80;2.95;;;4.60;99.90;;;;;;5076137;28;20021;-58
2023/04/27 01:38:28;;;;;;;5.43;2.83;;;4.50;99.90;;;;;;5074753;28;20036;-58
2023/04/27 01:41:00;;;;;;;5.82;3.40;;;4.50;99.90;;;;;;5076025;28;20060;-59
2023/04/27 01:43:30;;;;;;;6.95;3.38;;;4.40;99.90;;;;;;5075100;28;20054;-59
2023/04/27 01:45:56;;;;;;;4.40;2.90;;;4.40;99.90;;;;;;5074493;28;20052;-59
2023/04/27 01:48:21;;;;;;;3.50;3.20;;;4.40;99.90;;;;;;5074440;28;20449;-58
2023/04/27 01:50:47;;;;;;;7.97;3.70;;;4.30;99.90;;;;;;5077172;28;20059;-59
2023/04/27 01:53:13;;;;;;;4.93;3.55;;;4.30;99.90;;;;;;5074665;28;20392;-59
2023/04/27 01:55:38;;;;;;;4.93;3.58;;;4.30;99.90;;;;;;5078199;28;20094;-59
2023/04/27 01:58:04;;;;;;;5.55;3.25;;;4.30;99.90;;;;;;5075214;28;20024;-58
2023/04/27 02:00:30;;;;;;;3.80;2.97;;;4.30;99.90;;;;;;5073291;28;20102;-59
2023/04/27 02:02:57;;;;;;;4.90;3.33;;;4.20;99.90;;;;;;5078192;28;20027;-59
2023/04/27 02:05:23;;;;;;;4.75;4.07;;;4.20;99.90;;;;;;5073746;28;20029;-58
2023/04/27 02:07:49;;;;;;;7.68;4.28;;;4.30;99.90;;;;;;5077134;28;20028;-60
2023/04/27 02:10:15;;;;;;;7.05;4.25;;;4.20;99.90;;;;;;5074646;28;20416;-58
2023/04/27 02:12:40;;;;;;;8.75;4.18;;;4.30;99.90;;;;;;5077875;28;20119;-60
2023/04/27 02:15:07;;;;;;;6.15;4.72;;;4.30;99.90;;;;;;5079951;28;20444;-58
2023/04/27 02:17:33;;;;;;;5.65;4.30;;;4.30;99.90;;;;;;5076165;28;20025;-59
2023/04/27 02:19:59;;;;;;;5.43;4.55;;;4.30;99.90;;;;;;5071250;28;20045;-58
2023/04/27 02:22:25;;;;;;;6.63;4.93;;;4.30;99.90;;;;;;5072918;28;20633;-57
2023/04/27 02:24:50;;;;;;;5.85;4.22;;;4.30;99.90;;;;;;5074406;28;20028;-59
2023/04/27 02:27:16;;;;;;;6.20;4.10;;;4.30;99.90;;;;;;5072551;28;20027;-58
2023/04/27 02:29:42;;;;;;;5.80;3.95;;;4.30;99.90;;;;;;5077375;28;20111;-58
2023/04/27 02:32:07;;;;;;;6.20;4.50;;;4.30;99.90;;;;;;5075442;28;20488;-58
2023/04/27 02:34:33;;;;;;;6.07;4.13;;;4.30;99.90;;;;;;5070549;28;20093;-59
2023/04/27 02:36:59;;;;;;;6.80;4.53;;;4.30;99.90;;;;;;5075881;28;20162;-59
2023/04/27 02:39:24;;;;;;;6.30;3.92;;;4.30;99.90;;;;;;5073845;28;20074;-59
2023/04/27 02:41:50;;;;;;;7.22;4.30;;;4.30;99.90;;;;;;5068679;28;20403;-59
2023/04/27 02:44:15;;;;;;;7.68;4.20;;;4.30;99.90;;;;;;5073772;28;20044;-58
2023/04/27 02:46:41;;;;;;;6.30;4.03;;;4.30;99.90;;;;;;5074165;28;20024;-60
2023/04/27 02:49:07;;;;;;;8.23;4.75;;;4.30;99.90;;;;;;5074207;28;20043;-58
2023/04/27 02:51:33;;;;;;;6.85;4.97;;;4.30;99.90;;;;;;5076609;28;20154;-58
2023/04/27 02:53:59;;;;;;;5.13;4.65;;;4.30;99.90;;;;;;5074181;28;20039;-58
2023/04/27 02:56:24;;;;;;;11.02;4.40;;;4.30;99.90;;;;;;5073337;28;20762;-58
2023/04/27 02:58:50;;;;;;;6.68;3.97;;;4.40;99.90;;;;;;5076497;28;20064;-58
2023/04/27 03:01:16;;;;;;;4.47;4.07;;;4.40;99.90;;;;;;5077050;28;20033;-59
2023/04/27 03:03:48;;;;;;;4.53;3.47;;;4.40;99.90;;;;;;5075974;28;20025;-59
2023/04/27 03:06:14;;;;;;;7.88;4.82;;;4.40;99.90;;;;;;5074685;28;20033;-60
2023/04/27 03:08:40;;;;;;;9.63;4.05;;;4.40;99.90;;;;;;5057080;28;20024;-59
2023/04/27 03:11:06;;;;;;;4.40;3.40;;;4.30;99.90;;;;;;5077713;28;20066;-59
2023/04/27 03:13:40;;;;;;;5.25;3.55;;;4.30;99.90;;;;;;5075271;28;20155;-58
2023/04/27 03:16:10;;;;;;;6.30;3.70;;;4.30;99.90;;;;;;5075141;28;20094;-58
2023/04/27 03:18:36;;;;;;;7.97;3.90;;;4.30;99.90;;;;;;5072611;28;20036;-59
2023/04/27 03:21:06;;;;;;;6.03;4.32;;;4.30;99.90;;;;;;5052767;28;20160;-59
2023/04/27 03:23:32;;;;;;;4.63;4.23;;;4.30;99.90;;;;;;5075452;28;20024;-58
2023/04/27 03:25:57;;;;;;;4.38;3.67;;;4.30;99.90;;;;;;5076249;28;20246;-58
2023/04/27 03:28:23;;;;;;;6.90;4.43;;;4.30;99.90;;;;;;5069922;28;20025;-58
2023/04/27 03:30:48;;;;;;;6.72;4.30;;;4.30;99.90;;;;;;5075117;28;20397;-58
2023/04/27 03:33:14;;;;;;;8.20;4.68;;;4.30;99.90;;;;;;5073360;28;20041;-58
2023/04/27 03:35:40;;;;;;;5.40;3.85;;;4.30;99.90;;;;;;5072645;28;20044;-59
2023/04/27 03:38:06;;;;;;;7.15;4.13;;;4.30;99.90;;;;;;5071641;28;20496;-59
2023/04/27 03:40:31;;;;;;;8.48;4.18;;;4.30;99.90;;;;;;5071954;28;20028;-58
2023/04/27 03:42:57;;;;;;;4.45;3.33;;;4.30;99.90;;;;;;5070821;28;20024;-60
2023/04/27 03:45:23;;;;;;;6.13;3.95;;;4.30;99.90;;;;;;5073688;28;20036;-58
2023/04/27 03:47:49;;;;;;;4.15;3.55;;;4.20;99.90;;;;;;5073893;28;20024;-58
2023/04/27 03:50:15;;;;;;;7.20;3.78;;;4.20;99.90;;;;;;5073644;28;20020;-58
2023/04/27 03:52:40;;;;;;;4.55;3.97;;;4.20;99.90;;;;;;5075326;28;20146;-57
2023/04/27 03:55:06;;;;;;;4.18;3.78;;;4.20;99.90;;;;;;5074624;28;20069;-58
2023/04/27 03:57:32;;;;;;;6.85;4.65;;;4.10;99.90;;;;;;5073228;28;20032;-59
2023/04/27 03:59:58;;;;;;;6.07;3.97;;;4.20;99.90;;;;;;5075894;28;20025;-58
2023/04/27 04:02:23;;;;;;;6.97;4.15;;;4.20;99.90;;;;;;5071628;28;20051;-57
2023/04/27 04:04:49;;;;;;;5.28;3.92;;;4.20;99.90;;;;;;5076981;28;20031;-58
2023/04/27 04:07:15;;;;;;;4.20;3.80;;;4.20;99.90;;;;;;5076972;28;20057;-58
2023/04/27 04:09:42;;;;;;;6.80;4.43;;;4.10;99.90;;;;;;5071783;28;20028;-58
2023/04/27 04:12:07;;;;;;;5.82;3.90;;;4.20;99.90;;;;;;5066993;28;20047;-58
2023/04/27 04:14:33;;;;;;;9.07;3.80;;;4.20;99.90;;;;;;5073532;28;20021;-57
2023/04/27 04:16:59;;;;;;;8.90;4.63;;;4.20;99.90;;;;;;5071304;28;20118;-57
2023/04/27 04:19:24;;;;;;;7.38;4.30;;;4.20;99.90;;;;;;5075432;28;20051;-59
2023/04/27 04:21:50;;;;;;;9.52;4.57;;;4.20;99.90;;;;;;5072878;28;20044;-58
2023/04/27 04:24:15;;;;;;;5.88;4.03;;;4.20;99.90;;;;;;5069817;28;20032;-60
2023/04/27 04:26:41;;;;;;;7.38;4.90;;;4.30;99.90;;;;;;5075874;28;20099;-57
2023/04/27 04:29:07;;;;;;;7.43;4.18;;;4.30;99.90;;;;;;5074440;28;20037;-58
2023/04/27 04:31:33;;;;;;;4.90;3.70;;;4.30;99.90;;;;;;5081285;28;20103;-59
2023/04/27 04:34:00;;;;;;;4.68;3.90;;;4.40;99.90;;;;;;5074872;28;20743;-58
2023/04/27 04:36:26;;;;;;;5.18;4.13;;;4.40;99.90;;;;;;5057000;28;20045;-58
2023/04/27 04:38:53;;;;;;;6.50;4.47;;;4.40;99.90;;;;;;5073854;28;20051;-57
2023/04/27 04:41:19;;;;;;;6.55;4.15;;;4.50;99.90;;;;;;5078397;28;20040;-59
2023/04/27 04:43:47;;;;;;;6.43;4.85;;;4.50;99.90;;;;;;5081089;28;20383;-60
2023/04/27 04:46:12;;;;;;;7.00;4.07;;;4.50;99.90;;;;;;5061922;28;20031;-58
2023/04/27 04:48:38;;;;;;;5.45;3.85;;;4.60;99.90;;;;;;5074716;28;20041;-59
2023/04/27 04:51:05;;;;;;;4.93;3.78;;;4.60;99.90;;;;;;5075370;28;20115;-59
2023/04/27 04:53:31;;;;;;;5.78;3.63;;;4.70;99.90;;;;;;5079624;28;20032;-59
2023/04/27 04:55:57;;;;;;;4.93;3.55;;;4.70;99.90;;;;;;5076557;28;20029;-57
2023/04/27 04:58:22;;;;;;;7.07;3.60;;;4.80;99.90;;;;;;5077670;28;20055;-58
2023/04/27 05:00:48;;;;;;;5.88;3.53;;;4.80;99.90;;;;;;5077304;28;20044;-58
2023/04/27 05:03:14;;;;;;;5.90;4.32;;;4.90;99.90;;;;;;5075779;28;20029;-58
2023/04/27 05:05:39;;;;;;;5.93;3.33;;;4.90;99.90;;;;;;5081658;28;20040;-58
2023/04/27 05:08:05;;;;;;;5.55;4.53;;;5.00;99.90;;;;;;5072162;28;20082;-58
2023/04/27 05:10:31;;;;;;;8.52;4.10;;;5.10;99.90;;;;;;5040087;28;20020;-58
2023/04/27 05:12:56;;;;;;;8.90;3.60;;;5.10;99.90;;;;;;5073771;28;20040;-58
2023/04/27 05:15:22;;;;;;;4.57;3.55;;;5.10;99.90;;;;;;5078651;28;20032;-58
2023/04/27 05:17:47;;;;;;;6.43;3.67;;;5.20;99.90;;;;;;5080794;28;20408;-59
2023/04/27 05:20:13;;;;;;;7.25;3.78;;;5.20;99.90;;;;;;5069985;28;20164;-59
2023/04/27 05:22:39;;;;;;;5.15;2.97;;;5.30;99.90;;;;;;5071889;28;20036;-59
2023/04/27 05:25:05;;;;;;;4.63;4.15;;;5.30;99.90;;;;;;5043264;28;20495;-59
2023/04/27 05:27:31;;;;;;;5.68;3.60;;;5.50;99.90;;;;;;5078793;28;20047;-58
2023/04/27 05:29:56;;;;;;;7.35;4.30;;;5.50;99.90;;;;;;5076514;28;20396;-58
2023/04/27 05:32:22;;;;;;;5.47;3.75;;;5.60;99.90;;;;;;5077055;28;20056;-58
2023/04/27 05:34:47;;;;;;;8.07;4.03;;;5.60;99.90;;;;;;5077494;28;20059;-58
2023/04/27 05:37:13;;;;;;;5.55;3.78;;;5.60;99.90;;;;;;5073802;28;20024;-59
2023/04/27 05:39:39;;;;;;;7.20;3.58;;;5.60;99.90;;;;;;5079038;28;20125;-58
2023/04/27 05:42:05;;;;;;;11.18;5.72;;;5.60;99.90;;;;;;5075688;28;20068;-59
2023/04/27 05:44:30;;;;;;;5.60;4.35;;;5.80;99.90;;;;;;5074639;28;20059;-59
2023/04/27 05:46:56;;;;;;;4.57;3.75;;;5.90;99.90;;;;;;5076019;28;20483;-58
2023/04/27 05:49:22;;;;;;;11.63;5.70;;;6.00;99.90;;;;;;5077687;28;20514;-58
2023/04/27 05:51:48;;;;;;;8.93;4.82;;;6.10;99.90;;;;;;5073523;28;20037;-57
2023/04/27 05:54:13;;;;;;;6.53;4.47;;;6.20;99.90;;;;;;5074252;28;20037;-58
2023/04/27 05:56:39;;;;;;;6.50;4.32;;;6.20;99.90;;;;;;5072673;28;20025;-58
2023/04/27 05:59:04;;;;;;;11.10;4.32;;;6.10;99.90;;;;;;5078464;28;20117;-59
2023/04/27 06:01:30;;;;;;;5.72;4.45;;;6.10;99.90;;;;;;5076763;28;20031;-59
2023/04/27 06:04:00;;;;;;;7.85;5.70;;;6.10;99.90;;;;;;5058986;28;20020;-58
2023/04/27 06:06:26;;;;;;;6.25;4.68;;;6.10;99.90;;;;;;5071731;28;20040;-58
2023/04/27 06:08:52;;;;;;;13.32;4.35;;;6.10;99.90;;;;;;5076246;28;20032;-57
2023/04/27 06:11:18;;;;;;;6.53;5.43;;;6.10;99.90;;;;;;5073546;28;20070;-60
2023/04/27 06:13:43;;;;;;;12.57;4.72;;;6.10;99.90;;;;;;5075921;28;20028;-58
2023/04/27 06:16:09;;;;;;;6.68;4.70;;;6.10;99.90;;;;;;5057489;28;20079;-59
2023/04/27 06:18:35;;;;;;;7.53;4.97;;;6.00;99.90;;;;;;5073372;28;20044;-58
2023/04/27 06:21:01;;;;;;;9.40;5.38;;;6.10;99.90;;;;;;5077851;28;20039;-57
2023/04/27 06:23:26;;;;;;;8.23;4.93;;;6.10;99.90;;;;;;5074729;28;20029;-59
2023/04/27 06:25:52;;;;;;;8.68;4.70;;;6.10;99.90;;;;;;5076461;28;20021;-58
2023/04/27 06:28:17;;;;;;;8.80;4.53;;;6.20;99.90;;;;;;5073532;28;20063;-58
2023/04/27 06:30:43;;;;;;;5.47;4.63;;;6.20;99.90;;;;;;5076371;28;20063;-59
2023/04/27 06:33:09;;;;;;;8.48;4.38;;;6.30;99.90;;;;;;5078982;28;20024;-58
2023/04/27 06:35:35;;;;;;;10.70;4.78;;;6.40;99.90;;;;;;5075712;28;20040;-58
2023/04/27 06:38:00;;;;;;;7.45;4.25;;;6.50;99.90;;;;;;5074034;28;20043;-59
2023/04/27 06:40:26;;;;;;;14.05;4.57;;;6.60;99.90;;;;;;5072796;28;20027;-58
2023/04/27 06:42:52;;;;;;;5.78;3.75;;;6.60;99.90;;;;;;5073679;28;20510;-58
2023/04/27 06:45:18;;;;;;;8.15;4.45;;;6.60;99.90;;;;;;5076743;28;20021;-59
2023/04/27 06:47:44;;;;;;;5.38;4.28;;;6.70;99.90;;;;;;5073844;28;20063;-59
2023/04/27 06:50:09;;;;;;;7.15;4.43;;;6.80;99.90;;;;;;5069750;28;20033;-59
2023/04/27 06:52:35;;;;;;;6.50;3.53;;;6.90;99.90;;;;;;5070377;28;20029;-58
2023/04/27 06:55:01;;;;;;;5.28;4.20;;;6.90;99.90;;;;;;5072042;28;20440;-60
2023/04/27 06:57:26;;;;;;;5.18;3.25;;;7.00;99.90;;;;;;5076217;28;20075;-58
2023/04/27 06:59:52;;;;;;;9.98;3.50;;;7.10;99.90;;;;;;5075094;28;20048;-59
2023/04/27 07:02:18;;;;;;;4.82;3.40;;;7.10;99.90;;;;;;5077851;28;20040;-58
2023/04/27 07:04:43;;;;;;;7.75;3.58;;;7.20;99.90;;;;;;5078033;28;20024;-58
2023/04/27 07:07:09;;;;;;;4.53;3.25;;;7.30;99.90;;;;;;5073847;28;20024;-58
2023/04/27 07:09:35;;;;;;;5.75;3.03;;;7.40;99.90;;;;;;5070949;28;20036;-58
2023/04/27 07:12:01;;;;;;;4.10;3.42;;;7.50;99.90;;;;;;5075009;28;20029;-59
2023/04/27 07:14:28;;;;;;;4.63;3.55;;;7.60;99.90;;;;;;5073161;28;20040;-59
2023/04/27 07:16:54;;;;;;;4.72;3.45;;;7.70;99.90;;;;;;5070531;28;20666;-58
2023/04/27 07:19:20;;;;;;;8.60;3.70;;;7.80;99.90;;;;;;5073503;28;20024;-58
2023/04/27 07:21:45;;;;;;;5.75;2.78;;;7.90;99.90;;;;;;5072292;28;20082;-59
2023/04/27 07:24:11;;;;;;;4.43;2.72;;;7.90;99.90;;;;;;5075489;28;20057;-59
2023/04/27 07:26:37;;;;;;;9.55;3.80;;;7.90;99.90;;;;;;5071688;28;20033;-60
2023/04/27 07:29:03;;;;;;;4.63;2.60;;;8.00;99.90;;;;;;5075769;28;20036;-59
2023/04/27 07:31:28;;;;;;;5.15;2.85;;;8.10;99.20;;;;;;5075540;28;20093;-57
2023/04/27 07:33:54;;;;;;;5.30;3.25;;;8.20;99.90;;;;;;5075347;28;20112;-59
2023/04/27 07:36:20;;;;;;;5.50;2.60;;;8.40;99.90;;;;;;5073758;28;20167;-57
2023/04/27 07:38:46;;;;;;;11.05;3.17;;;8.50;99.70;;;;;;5072805;28;20033;-58
2023/04/27 07:41:13;;;;;;;5.00;3.15;;;8.70;99.90;;;;;;5070883;28;20037;-59
2023/04/27 07:43:39;;;;;;;9.85;3.30;;;8.80;99.90;;;;;;5074249;28;20514;-59
2023/04/27 07:46:05;;;;;;;4.25;3.03;;;9.00;99.90;;;;;;5069278;28;20056;-59
2023/04/27 07:48:31;;;;;;;3.80;2.75;;;9.10;97.10;;;;;;5055590;28;20071;-59
2023/04/27 07:50:57;;;;;;;5.55;3.50;;;9.10;99.10;;;;;;5069544;28;20564;-60
2023/04/27 07:53:22;;;;;;;6.97;3.88;;;9.20;98.60;;;;;;5069498;28;20036;-59
2023/04/27 07:55:48;;;;;;;4.20;3.10;;;9.30;94.40;;;;;;5076372;28;20055;-59
2023/04/27 07:58:13;;;;;;;5.00;2.95;;;9.30;98.00;;;;;;5071481;28;20111;-59
2023/04/27 08:00:39;;;;;;;5.97;3.17;;;9.40;97.60;;;;;;5072438;28;20040;-59
2023/04/27 08:03:06;;;;;;;6.38;2.92;;;9.40;93.40;;;;;;5074228;28;20098;-59
2023/04/27 08:05:32;;;;;;;5.70;2.67;;;9.50;94.60;;;;;;5074182;28;20036;-58
2023/04/27 08:07:57;;;;;;;4.22;2.60;;;9.60;93.60;;;;;;5070353;28;20072;-58
2023/04/27 08:10:23;;;;;;;7.68;3.15;;;9.70;95.40;;;;;;5075011;28;20028;-59
2023/04/27 08:12:49;;;;;;;5.07;2.80;;;9.80;91.60;;;;;;5075512;28;20099;-60
2023/04/27 08:15:14;;;;;;;3.90;2.53;;;10.00;95.30;;;;;;5073926;28;20032;-58
2023/04/27 08:17:40;;;;;;;5.70;2.30;;;10.00;90.40;;;;;;5071162;28;20028;-60
2023/04/27 08:20:10;;;;;;;5.13;2.47;;;10.20;90.50;;;;;;5070376;28;20036;-59
2023/04/27 08:22:36;;;;;;;10.15;2.53;;;10.20;87.90;;;;;;5076788;28;20035;-58
2023/04/27 08:25:03;;;;;;;6.90;2.95;;;10.30;89.10;;;;;;5072956;28;20047;-60
2023/04/27 08:27:29;;;;;;;6.32;2.78;;;10.50;90.90;;;;;;5074719;28;20062;-60
2023/04/27 08:29:55;;;;;;;4.40;2.10;;;10.60;93.70;;;;;;5074645;28;20032;-60
2023/04/27 08:32:21;;;;;;;5.53;2.67;;;10.70;85.30;;;;;;5069095;28;20021;-60
2023/04/27 08:34:46;;;;;;;6.55;3.40;;;10.80;82.90;;;;;;5071251;28;20025;-61
2023/04/27 08:37:12;;;;;;;4.28;2.30;;;10.90;88.50;;;;;;5075602;28;20514;-59
2023/04/27 08:39:37;;;;;;;8.55;2.20;;;11.00;89.00;;;;;;5070987;28;20016;-60
2023/04/27 08:42:11;;;;;;;4.13;2.25;;;11.10;84.60;;;;;;5073369;28;20029;-58
2023/04/27 08:44:41;;;;;;;6.80;2.60;;;11.30;81.60;;;;;;5071632;28;20514;-60
2023/04/27 08:47:07;;;;;;;4.03;2.30;;;11.50;80.70;;;;;;5072763;28;20033;-60
2023/04/27 08:49:34;;;;;;;3.65;2.75;;;11.60;82.10;;;;;;5070634;28;20032;-60
2023/04/27 08:52:00;;;;;;;4.82;2.70;;;11.70;78.30;;;;;;5076091;28;20075;-60
2023/04/27 08:54:26;;;;;;;6.75;2.75;;;11.70;78.90;;;;;;5070789;28;20115;-61
2023/04/27 08:56:52;;;;;;;7.95;2.70;;;11.80;77.90;;;;;;5069788;28;20136;-59
2023/04/27 08:59:17;;;;;;;6.60;2.70;;;12.00;80.70;;;;;;5070732;28;20053;-58
2023/04/27 09:01:45;;;;;;;3.55;2.60;;;12.00;78.40;;;;;;5054699;28;20017;-59
2023/04/27 09:04:11;;;;;;;4.53;2.80;;;12.10;82.00;;;;;;5071459;28;20028;-60
2023/04/27 09:06:36;;;;;;;6.03;1.90;;;12.40;82.80;;;;;;5069969;28;20067;-59
2023/04/27 09:09:03;;;;;;;8.13;2.65;;;12.90;77.60;;;;;;5070027;28;20032;-60
2023/04/27 09:11:35;;;;;;;4.20;2.67;;;13.60;74.20;;;;;;5068664;28;20448;-60
2023/04/27 09:14:15;;;;;;;7.72;2.60;;;14.50;74.90;;;;;;5072611;28;20445;-60
2023/04/27 09:16:41;;;;;;;5.78;2.67;;;15.70;68.00;;;;;;5076020;28;20028;-60
2023/04/27 09:19:07;;;;;;;3.22;2.42;;;17.40;65.90;;;;;;5082264;28;20016;-61
2023/04/27 09:21:33;;;;;;;9.13;2.40;;;18.80;61.60;;;;;;5078075;28;20530;-61
2023/04/27 09:24:09;;;;;;;5.45;2.15;;;19.70;54.90;;;;;;5076217;28;20081;-61
2023/04/27 09:26:36;;;;;;;4.32;2.35;;;20.50;54.20;;;;;;5075778;28;20082;-60
2023/04/27 09:29:02;;;;;;;6.97;2.70;;;21.10;51.10;;;;;;5077494;28;20024;-61
2023/04/27 09:31:34;;;;;;;4.28;2.60;;;20.80;48.20;;;;;;5078193;28;20033;-60
2023/04/27 09:34:01;;;;;;;4.95;2.15;;;20.20;49.20;;;;;;5076494;28;20609;-60
2023/04/27 09:36:29;;;;;;;3.90;2.17;;;19.80;51.10;;;;;;5073947;28;20032;-60
2023/04/27 09:38:55;;;;;;;4.13;2.55;;;19.30;49.30;;;;;;5076350;28;20151;-60
2023/04/27 09:41:21;;;;;;;6.00;2.30;;;18.70;51.60;;;;;;5078946;28;20062;-60
2023/04/27 09:43:47;;;;;;;3.67;2.10;;;18.70;53.60;;;;;;5078232;28;20373;-61
2023/04/27 09:46:13;;;;;;;4.85;2.35;;;18.70;52.50;;;;;;5078019;28;20387;-60
2023/04/27 09:48:40;;;;;;;5.53;2.63;;;18.70;51.50;;;;;;5078370;28;20036;-61
2023/04/27 09:51:06;;;;;;;5.88;2.60;;;19.10;50.60;;;;;;5080054;28;20031;-60
2023/04/27 09:53:49;;;;;;;4.07;2.20;;;19.60;53.10;;;;;;5075431;28;20036;-60
2023/04/27 09:56:32;;;;;;;3.65;1.90;;;20.40;49.30;;;;;;5075248;28;20553;-59
2023/04/27 09:59:36;;;;;;;4.63;2.47;;;20.50;50.20;;;;;;5079812;28;20021;-60
2023/04/27 10:02:03;;;;;;;3.13;2.03;;;20.80;50.70;;;;;;5074444;28;20423;-60
2023/04/27 10:04:29;;;;;;;4.18;2.50;;;20.60;45.90;;;;;;5036277;28;20473;-61
2023/04/27 10:07:11;;;;;;;4.00;2.70;;;19.90;47.10;;;;;;5073638;28;20068;-60
2023/04/27 10:09:42;;;;;;;10.98;2.50;;;18.70;49.10;;;;;;5077255;28;20032;-61
2023/04/27 10:12:41;;;;;;;5.75;2.65;;;17.40;51.70;;;;;;5059673;28;20028;-60
2023/04/27 10:15:15;;;;;;;8.40;3.05;;;16.60;54.40;;;;;;5073972;28;20064;-60
2023/04/27 10:17:51;;;;;;;5.88;2.78;;;16.10;57.70;;;;;;5071839;28;20055;-58
2023/04/27 10:20:28;;;;;;;4.22;2.88;;;15.90;60.40;;;;;;5078141;28;20091;-60
2023/04/27 10:22:54;;;;;;;5.18;2.95;;;16.10;60.80;;;;;;5073102;28;20147;-59
2023/04/27 10:25:22;;;;;;;6.57;2.75;;;16.80;62.10;;;;;;5077082;28;20453;-59
2023/04/27 10:28:14;;;;;;;4.28;2.55;;;18.00;59.20;;;;;;5077432;28;20024;-61
2023/04/27 10:30:47;;;;;;;4.15;3.17;;;19.30;50.40;;;;;;5078826;28;20181;-60
2023/04/27 10:33:16;;;;;;;4.53;2.92;;;19.70;49.50;;;;;;5074883;28;20039;-60
2023/04/27 10:35:44;;;;;;;4.80;2.55;;;19.90;51.70;;;;;;5076267;28;20553;-59
2023/04/27 10:38:19;;;;;;;6.90;2.63;;;20.00;53.20;;;;;;5072910;28;20062;-59
2023/04/27 10:40:53;;;;;;;5.82;2.80;;;19.90;50.50;;;;;;5074578;28;20028;-59
2023/04/27 10:43:24;;;;;;;9.65;3.38;;;19.30;49.70;;;;;;5074092;28;20032;-60
2023/04/27 10:45:50;;;;;;;8.30;2.80;;;18.30;50.20;;;;;;5073056;28;20571;-59
2023/04/27 10:48:15;;;;;;;7.63;2.65;;;17.60;53.20;;;;;;5068519;28;20183;-59
2023/04/27 10:50:43;;;;;;;3.78;2.67;;;16.90;55.00;;;;;;5053926;28;20044;-59
2023/04/27 10:53:09;;;;;;;3.95;2.28;;;16.40;56.10;;;;;;5070797;28;20249;-59
2023/04/27 10:55:35;;;;;;;4.78;2.60;;;16.10;60.10;;;;;;5077273;28;20566;-59
2023/04/27 10:58:01;;;;;;;4.10;2.85;;;16.30;56.60;;;;;;5051652;28;20028;-59
2023/04/27 11:00:29;;;;;;;6.72;2.47;;;16.40;56.60;;;;;;5073085;28;20184;-59
2023/04/27 11:02:57;;;;;;;6.90;2.95;;;16.80;58.00;;;;;;5074524;28;20028;-59
2023/04/27 11:05:28;;;;;;;6.05;3.25;;;17.40;56.80;;;;;;5075642;28;20058;-60
2023/04/27 11:08:07;;;;;;;;;;;17.60;53.70;;;;;;5077860;28;20111;-60
2023/04/27 11:10:34;;;;;;;6.90;3.13;;;17.70;55.60;;;;;;5074837;28;19935;-60
2023/04/27 11:13:24;;;;;;;4.72;2.78;;;18.10;56.60;;;;;;5074152;28;20036;-59
2023/04/27 11:15:53;;;;;;;5.43;2.92;;;18.40;59.10;;;;;;5072289;28;20024;-59
2023/04/27 11:18:20;;;;;;;4.03;2.78;;;18.80;54.70;;;;;;5074241;28;20564;-59
2023/04/27 11:20:48;;;;;;;3.75;2.53;;;19.00;54.50;;;;;;5074513;28;20031;-60
2023/04/27 11:23:29;;;;;;;4.03;2.92;;;19.40;55.00;;;;;;5075617;28;20074;-60
2023/04/27 11:25:55;;;;;;;4.47;2.85;;;19.50;53.90;;;;;;5074169;28;20029;-59
2023/04/27 11:28:22;;;;;;;5.10;2.88;;;18.60;54.60;;;;;;5071331;28;20574;-59
2023/04/27 11:30:58;;;;;;;4.75;3.63;;;17.50;55.70;;;;;;5073409;28;20032;-59
2023/04/27 11:33:25;;;;;;;9.88;3.25;;;17.10;53.30;;;;;;5069543;28;20029;-59
2023/04/27 11:35:52;;;;;;;4.05;2.95;;;17.00;60.50;;;;;;5072612;28;20467;-60
2023/04/27 11:38:18;;;;;;;10.38;3.22;;;17.10;55.10;;;;;;5056306;28;20028;-60
2023/04/27 11:40:46;;;;;;;7.95;3.17;;;17.10;55.00;;;;;;5076877;28;20028;-59
2023/04/27 11:43:14;;;;;;;6.90;3.45;;;16.80;56.90;;;;;;5073565;28;20020;-58
2023/04/27 11:45:43;;;;;;;3.65;2.30;;;16.60;53.50;;;;;;5073935;28;20060;-59
2023/04/27 11:48:14;;;;;;;7.13;2.88;;;16.60;54.60;;;;;;5072729;28;20123;-61
2023/04/27 11:50:40;;;;;;;5.07;2.30;;;16.60;53.30;;;;;;5075468;28;20039;-59
2023/04/27 11:53:06;;;;;;;6.82;2.92;;;16.60;53.60;;;;;;5071904;28;20038;-58
2023/04/27 11:55:36;;;;;;;6.63;2.90;;;16.40;53.90;;;;;;5071998;28;20147;-57
2023/04/27 11:58:01;;;;;;;6.15;2.92;;;16.30;56.00;;;;;;5071136;28;20034;-57
2023/04/27 12:00:27;;;;;;;6.63;2.97;;;16.20;54.80;;;;;;5075572;28;20468;-57
2023/04/27 12:02:53;;;;;;;5.85;3.03;;;15.90;53.90;;;;;;5072610;28;20020;-58
2023/04/27 12:05:19;;;;;;;4.63;2.92;;;15.90;54.90;;;;;;5077156;28;20111;-58
2023/04/27 12:07:45;;;;;;;4.97;2.83;;;16.20;56.70;;;;;;5077492;28;20028;-57
2023/04/27 12:10:11;;;;;;;4.60;2.67;;;16.60;53.80;;;;;;5078420;28;20040;-58
2023/04/27 12:12:37;;;;;;;5.82;3.47;;;17.10;54.30;;;;;;5066999;28;20025;-59
2023/04/27 12:15:03;;;;;;;7.25;3.80;;;17.60;52.70;;;;;;5076531;28;20032;-58
2023/04/27 12:17:29;;;;;;;5.63;3.05;;;17.80;55.70;;;;;;5074538;28;20119;-58
2023/04/27 12:19:55;;;;;;;3.72;2.80;;;18.10;53.50;;;;;;5076139;28;20460;-59
2023/04/27 12:22:21;;;;;;;4.93;3.45;;;18.10;51.60;;;;;;5075458;28;20447;-61
2023/04/27 12:24:47;;;;;;;3.17;2.58;;;17.80;52.50;;;;;;5078969;28;20025;-58
2023/04/27 12:27:12;;;;;;;3.80;2.70;;;16.90;51.80;;;;;;5075383;28;20381;-58
2023/04/27 12:29:38;;;;;;;4.70;3.40;;;16.50;60.40;;;;;;5077302;28;20032;-58
2023/04/27 12:32:04;;;;;;;7.22;3.20;;;16.40;54.40;;;;;;5072668;28;20029;-58
2023/04/27 12:34:30;;;;;;;4.18;2.60;;;16.60;53.50;;;;;;5075890;28;20021;-58
2023/04/27 12:36:56;;;;;;;4.75;2.70;;;16.70;54.00;;;;;;5072724;28;20031;-58
2023/04/27 12:39:25;;;;;;;5.60;2.85;;;16.70;55.50;;;;;;5055874;28;20032;-58
2023/04/27 12:41:52;;;;;;;3.92;2.70;;;16.60;56.90;;;;;;5070393;28;20036;-58
2023/04/27 12:44:19;;;;;;;5.47;2.75;;;16.60;55.80;;;;;;5076211;28;20028;-58
2023/04/27 12:46:47;;;;;;;6.90;2.53;;;16.70;53.50;;;;;;5071822;28;20029;-58
2023/04/27 12:49:13;;;;;;;5.68;2.70;;;16.90;52.80;;;;;;5074325;28;20466;-58
2023/04/27 12:51:38;;;;;;;3.50;2.55;;;16.90;51.80;;;;;;5074584;28;20048;-58